createdAt,value
2017-11-11T00:00:23.102Z,4.32
2017-11-11T00:01:31.929Z,4.26
2017-11-11T00:02:40.764Z,4.24
2017-11-11T00:03:49.580Z,4.26
2017-11-11T00:04:58.752Z,4.29
2017-11-11T00:06:07.582Z,4.44
2017-11-11T00:07:16.456Z,4.6
2017-11-11T00:08:25.282Z,4.4
2017-11-11T00:09:34.108Z,4.65
2017-11-11T00:10:42.933Z,4.55
2017-11-11T00:11:51.760Z,4.6
2017-11-11T00:13:00.638Z,4.42
2017-11-11T00:14:09.809Z,4.29
2017-11-11T00:15:18.984Z,4.24
2017-11-11T00:16:27.808Z,4.29
2017-11-11T00:17:36.647Z,4.22
2017-11-11T00:18:45.712Z,4.3
2017-11-11T00:19:54.550Z,4.33
2017-11-11T00:21:03.361Z,4.44
2017-11-11T00:22:12.184Z,4.33
2017-11-11T00:23:21.013Z,4.4
2017-11-11T00:24:29.936Z,4.45
2017-11-11T00:25:38.761Z,4.36
2017-11-11T00:26:47.588Z,4.55
2017-11-11T00:27:56.757Z,4.5
2017-11-11T00:29:05.582Z,4.44
2017-11-11T00:30:14.560Z,4.4
2017-11-11T00:31:23.732Z,4.66
2017-11-11T00:32:32.908Z,4.52
2017-11-11T00:33:41.727Z,4.44
2017-11-11T00:34:50.551Z,4.67
2017-11-11T00:35:59.373Z,4.59
2017-11-11T00:37:08.198Z,4.58
2017-11-11T00:38:17.023Z,4.5
2017-11-11T00:39:25.850Z,4.47
2017-11-11T00:40:34.674Z,4.69
2017-11-11T00:41:43.848Z,4.58
2017-11-11T00:42:52.675Z,4.55
2017-11-11T00:44:01.503Z,4.7
2017-11-11T00:45:10.329Z,4.84
2017-11-11T00:46:19.158Z,4.65
2017-11-11T00:47:28.136Z,4.73
2017-11-11T00:48:36.960Z,5.04
2017-11-11T00:49:45.785Z,4.69
2017-11-11T00:50:54.611Z,4.6
2017-11-11T00:52:03.439Z,4.69
2017-11-11T00:53:12.316Z,4.42
2017-11-11T00:54:21.141Z,5.02
2017-11-11T00:55:29.966Z,4.62
2017-11-11T00:56:38.909Z,4.63
2017-11-11T00:57:47.719Z,4.44
2017-11-11T00:58:56.793Z,4.4
2017-11-11T01:00:05.617Z,4.32
2017-11-11T01:01:14.441Z,4.29
2017-11-11T01:02:23.265Z,4.23
2017-11-11T01:03:32.091Z,4.32
2017-11-11T01:04:40.926Z,4.29
2017-11-11T01:05:49.749Z,4.72
2017-11-11T01:06:58.608Z,4.33
2017-11-11T01:08:07.393Z,4.26
2017-11-11T01:09:16.561Z,4.3
2017-11-11T01:10:25.636Z,4.32
2017-11-11T01:11:34.827Z,4.34
2017-11-11T01:12:43.637Z,4.36
2017-11-11T01:13:52.469Z,4.45
2017-11-11T01:15:01.284Z,4.3
2017-11-11T01:16:10.110Z,4.4
2017-11-11T01:17:18.934Z,4.45
2017-11-11T01:18:27.759Z,4.41
2017-11-11T01:19:36.587Z,4.44
2017-11-11T01:20:45.410Z,4.45
2017-11-11T01:21:54.386Z,4.45
2017-11-11T01:23:03.212Z,4.52
2017-11-11T01:24:12.057Z,4.45
2017-11-11T01:25:20.877Z,4.99
2017-11-11T01:26:29.702Z,4.97
2017-11-11T01:27:38.678Z,4.91
2017-11-11T01:28:47.504Z,4.77
2017-11-11T01:29:56.329Z,4.8
2017-11-11T01:31:05.155Z,4.92
2017-11-11T01:32:13.979Z,4.77
2017-11-11T01:33:23.055Z,4.69
2017-11-11T01:34:31.882Z,4.72
2017-11-11T01:35:41.059Z,4.77
2017-11-11T01:36:49.884Z,4.72
2017-11-11T01:37:58.710Z,5.15
2017-11-11T01:39:07.638Z,4.77
2017-11-11T01:40:16.462Z,4.72
2017-11-11T01:41:25.289Z,4.92
2017-11-11T01:42:34.115Z,5
2017-11-11T01:43:43.284Z,4.96
2017-11-11T01:44:52.111Z,4.92
2017-11-11T01:46:00.935Z,4.75
2017-11-11T01:47:09.761Z,4.82
2017-11-11T01:48:18.940Z,4.73
2017-11-11T01:49:27.767Z,4.99
2017-11-11T01:50:36.696Z,4.72
2017-11-11T01:51:45.524Z,4.66
2017-11-11T01:52:54.707Z,4.77
2017-11-11T01:54:03.530Z,4.97
2017-11-11T01:55:12.354Z,4.94
2017-11-11T01:56:21.179Z,4.86
2017-11-11T01:57:30.005Z,4.72
2017-11-11T01:58:38.830Z,4.75
2017-11-11T01:59:47.657Z,4.6
2017-11-11T02:00:56.484Z,4.73
2017-11-11T02:02:05.453Z,4.59
2017-11-11T02:03:14.627Z,4.59
2017-11-11T02:04:23.454Z,4.51
2017-11-11T02:05:32.282Z,4.51
2017-11-11T02:06:41.106Z,4.47
2017-11-11T02:07:50.032Z,4.45
2017-11-11T02:08:58.858Z,4.42
2017-11-11T02:10:07.680Z,4.45
2017-11-11T02:11:16.505Z,4.54
2017-11-11T02:12:25.328Z,4.45
2017-11-11T02:13:34.452Z,4.44
2017-11-11T02:14:43.279Z,4.44
2017-11-11T02:15:52.105Z,4.36
2017-11-11T02:17:00.934Z,4.33
2017-11-11T02:18:10.448Z,4.24
2017-11-11T02:19:19.273Z,4.29
2017-11-11T02:20:28.097Z,4.29
2017-11-11T02:21:36.921Z,4.32
2017-11-11T02:22:46.097Z,4.29
2017-11-11T02:23:54.920Z,4.36
2017-11-11T02:25:03.845Z,4.26
2017-11-11T02:26:12.669Z,4.32
2017-11-11T02:27:21.495Z,4.26
2017-11-11T02:28:30.319Z,4.3
2017-11-11T02:29:39.146Z,4.34
2017-11-11T02:30:47.973Z,4.3
2017-11-11T02:31:57.151Z,4.32
2017-11-11T02:33:05.976Z,4.27
2017-11-11T02:34:14.804Z,4.33
2017-11-11T02:35:23.630Z,4.27
2017-11-11T02:36:32.949Z,4.12
2017-11-11T02:37:41.774Z,4.16
2017-11-11T02:38:50.599Z,4.18
2017-11-11T02:39:59.428Z,4.11
2017-11-11T02:41:08.255Z,4.15
2017-11-11T02:42:17.082Z,4.42
2017-11-11T02:43:25.916Z,4.32
2017-11-11T02:44:34.732Z,4.15
2017-11-11T02:45:43.557Z,4.08
2017-11-11T02:46:52.380Z,4.11
2017-11-11T02:48:01.406Z,4.16
2017-11-11T02:49:10.231Z,4.14
2017-11-11T02:50:19.059Z,4.04
2017-11-11T02:51:27.883Z,4.08
2017-11-11T02:52:36.749Z,4.08
2017-11-11T02:53:45.532Z,4.15
2017-11-11T02:54:54.355Z,4.24
2017-11-11T02:56:03.185Z,4.15
2017-11-11T02:57:12.009Z,4.04
2017-11-11T02:58:20.835Z,4.08
2017-11-11T02:59:29.762Z,4.11
2017-11-11T03:00:38.936Z,4.11
2017-11-11T03:01:47.762Z,4.06
2017-11-11T03:02:56.586Z,4.04
2017-11-11T03:04:05.410Z,4.16
2017-11-11T03:05:14.538Z,4.05
2017-11-11T03:06:23.363Z,4.23
2017-11-11T03:07:32.880Z,4.12
2017-11-11T03:08:41.706Z,4.11
2017-11-11T03:09:50.531Z,4.11
2017-11-11T03:10:59.359Z,4.22
2017-11-11T03:12:08.191Z,4.09
2017-11-11T03:13:17.009Z,4.09
2017-11-11T03:14:25.836Z,4.15
2017-11-11T03:15:34.662Z,4.12
2017-11-11T03:16:43.587Z,4.12
2017-11-11T03:17:52.757Z,4.09
2017-11-11T03:19:01.583Z,4.27
2017-11-11T03:20:10.407Z,4.33
2017-11-11T03:21:19.234Z,4.26
2017-11-11T03:22:28.360Z,4.26
2017-11-11T03:23:37.186Z,4.27
2017-11-11T03:24:46.354Z,4.27
2017-11-11T03:25:55.187Z,4.29
2017-11-11T03:27:04.356Z,4.44
2017-11-11T03:28:13.580Z,4.45
2017-11-11T03:29:22.410Z,4.62
2017-11-11T03:30:31.239Z,4.47
2017-11-11T03:31:40.779Z,4.45
2017-11-11T03:32:49.607Z,4.5
2017-11-11T03:33:58.684Z,4.54
2017-11-11T03:35:07.522Z,4.42
2017-11-11T03:36:16.336Z,4.42
2017-11-11T03:37:25.163Z,4.41
2017-11-11T03:38:33.992Z,4.3
2017-11-11T03:39:42.966Z,4.44
2017-11-11T03:40:51.792Z,4.36
2017-11-11T03:42:00.618Z,4.4
2017-11-11T03:43:09.442Z,4.52
2017-11-11T03:44:18.265Z,4.42
2017-11-11T03:45:27.444Z,4.36
2017-11-11T03:46:36.270Z,4.45
2017-11-11T03:47:45.101Z,4.52
2017-11-11T03:48:53.919Z,4.52
2017-11-11T03:50:02.792Z,4.42
2017-11-11T03:51:12.018Z,4.52
2017-11-11T03:52:20.843Z,4.55
2017-11-11T03:53:29.668Z,4.54
2017-11-11T03:54:38.494Z,4.41
2017-11-11T03:55:47.320Z,4.42
2017-11-11T03:56:56.147Z,4.37
2017-11-11T03:58:05.325Z,4.4
2017-11-11T03:59:14.149Z,4.41
2017-11-11T04:00:22.975Z,4.4
2017-11-11T04:01:31.803Z,4.42
2017-11-11T04:02:40.961Z,4.41
2017-11-11T04:03:49.750Z,4.41
2017-11-11T04:04:58.575Z,4.42
2017-11-11T04:06:07.748Z,4.4
2017-11-11T04:07:16.578Z,4.34
2017-11-11T04:08:25.398Z,4.34
2017-11-11T04:09:34.220Z,4.41
2017-11-11T04:10:43.047Z,4.34
2017-11-11T04:11:51.874Z,4.42
2017-11-11T04:13:00.700Z,4.47
2017-11-11T04:14:09.526Z,4.42
2017-11-11T04:15:18.349Z,4.47
2017-11-11T04:16:27.181Z,4.47
2017-11-11T04:17:36.001Z,4.37
2017-11-11T04:18:44.827Z,4.58
2017-11-11T04:19:54.005Z,4.55
2017-11-11T04:21:02.833Z,4.58
2017-11-11T04:22:11.658Z,4.48
2017-11-11T04:23:20.483Z,4.45
2017-11-11T04:24:29.312Z,4.42
2017-11-11T04:25:38.533Z,4.59
2017-11-11T04:26:47.362Z,4.75
2017-11-11T04:27:56.186Z,5.03
2017-11-11T04:29:05.013Z,4.59
2017-11-11T04:30:13.834Z,4.55
2017-11-11T04:31:22.810Z,4.4
2017-11-11T04:32:31.634Z,4.44
2017-11-11T04:33:40.459Z,4.47
2017-11-11T04:34:49.282Z,4.42
2017-11-11T04:35:58.105Z,4.45
2017-11-11T04:37:07.032Z,4.62
2017-11-11T04:38:16.206Z,4.5
2017-11-11T04:39:25.028Z,4.59
2017-11-11T04:40:33.855Z,4.44
2017-11-11T04:41:42.679Z,4.52
2017-11-11T04:42:51.555Z,4.47
2017-11-11T04:44:00.383Z,4.41
2017-11-11T04:45:09.207Z,4.42
2017-11-11T04:46:18.034Z,4.55
2017-11-11T04:47:26.864Z,4.54
2017-11-11T04:48:35.681Z,4.52
2017-11-11T04:49:44.508Z,4.41
2017-11-11T04:50:53.330Z,4.44
2017-11-11T04:52:02.157Z,4.42
2017-11-11T04:53:10.981Z,4.47
2017-11-11T04:54:19.806Z,4.42
2017-11-11T04:55:28.631Z,4.55
2017-11-11T04:56:37.457Z,4.66
2017-11-11T04:57:46.283Z,4.55
2017-11-11T04:58:55.107Z,4.63
2017-11-11T05:00:04.233Z,4.48
2017-11-11T05:01:13.063Z,4.47
2017-11-11T05:02:21.883Z,4.42
2017-11-11T05:03:30.757Z,4.36
2017-11-11T05:04:39.583Z,4.52
2017-11-11T05:05:48.407Z,4.47
2017-11-11T05:06:57.236Z,4.44
2017-11-11T05:08:06.058Z,4.59
2017-11-11T05:09:15.233Z,4.55
2017-11-11T05:10:24.056Z,4.47
2017-11-11T05:11:33.184Z,4.47
2017-11-11T05:12:42.009Z,4.99
2017-11-11T05:13:50.834Z,4.65
2017-11-11T05:14:59.659Z,4.92
2017-11-11T05:16:08.832Z,4.69
2017-11-11T05:17:17.808Z,4.6
2017-11-11T05:18:26.635Z,4.6
2017-11-11T05:19:35.459Z,4.59
2017-11-11T05:20:44.291Z,4.51
2017-11-11T05:21:53.113Z,4.58
2017-11-11T05:23:02.190Z,4.51
2017-11-11T05:24:11.012Z,4.63
2017-11-11T05:25:19.837Z,4.6
2017-11-11T05:26:28.663Z,4.59
2017-11-11T05:27:37.488Z,4.59
2017-11-11T05:28:46.462Z,4.73
2017-11-11T05:29:55.301Z,4.73
2017-11-11T05:31:04.116Z,4.69
2017-11-11T05:32:12.944Z,4.72
2017-11-11T05:33:21.773Z,4.85
2017-11-11T05:34:30.599Z,4.8
2017-11-11T05:35:39.427Z,4.73
2017-11-11T05:36:48.596Z,4.66
2017-11-11T05:37:57.420Z,4.7
2017-11-11T05:39:06.250Z,4.72
2017-11-11T05:40:15.718Z,4.7
2017-11-11T05:41:24.543Z,4.7
2017-11-11T05:42:33.368Z,4.84
2017-11-11T05:43:42.538Z,4.73
2017-11-11T05:44:51.372Z,4.72
2017-11-11T05:46:00.291Z,4.72
2017-11-11T05:47:09.117Z,4.75
2017-11-11T05:48:17.943Z,4.69
2017-11-11T05:49:26.770Z,4.69
2017-11-11T05:50:35.594Z,4.82
2017-11-11T05:51:44.571Z,4.89
2017-11-11T05:52:53.397Z,4.8
2017-11-11T05:54:02.224Z,5.07
2017-11-11T05:55:11.053Z,5.03
2017-11-11T05:56:19.877Z,4.88
2017-11-11T05:57:28.849Z,5.03
2017-11-11T05:58:37.676Z,4.94
2017-11-11T05:59:46.503Z,4.96
2017-11-11T06:00:55.686Z,4.92
2017-11-11T06:02:04.501Z,4.91
2017-11-11T06:03:13.677Z,4.92
2017-11-11T06:04:22.503Z,4.92
2017-11-11T06:05:31.333Z,5.06
2017-11-11T06:06:40.170Z,5.07
2017-11-11T06:07:49.345Z,5.06
2017-11-11T06:08:58.338Z,4.97
2017-11-11T06:10:07.148Z,5
2017-11-11T06:11:16.014Z,5
2017-11-11T06:12:24.806Z,4.97
2017-11-11T06:13:33.630Z,5.03
2017-11-11T06:14:42.509Z,4.94
2017-11-11T06:15:51.336Z,5.02
2017-11-11T06:17:00.165Z,4.92
2017-11-11T06:18:08.991Z,5
2017-11-11T06:19:18.170Z,4.97
2017-11-11T06:20:26.995Z,5.02
2017-11-11T06:21:35.822Z,5.02
2017-11-11T06:22:44.651Z,4.99
2017-11-11T06:23:53.474Z,4.96
2017-11-11T06:25:02.400Z,4.96
2017-11-11T06:26:11.376Z,5.02
2017-11-11T06:27:20.205Z,4.96
2017-11-11T06:28:29.374Z,4.92
2017-11-11T06:29:38.252Z,4.97
2017-11-11T06:30:47.081Z,4.97
2017-11-11T06:31:55.907Z,4.94
2017-11-11T06:33:04.736Z,4.99
2017-11-11T06:34:13.908Z,4.96
2017-11-11T06:35:22.734Z,4.91
2017-11-11T06:36:31.559Z,4.96
2017-11-11T06:37:40.634Z,4.91
2017-11-11T06:38:49.462Z,4.92
2017-11-11T06:39:58.288Z,4.92
2017-11-11T06:41:07.118Z,4.78
2017-11-11T06:42:16.296Z,4.84
2017-11-11T06:43:25.123Z,4.78
2017-11-11T06:44:33.950Z,4.77
2017-11-11T06:45:43.127Z,4.73
2017-11-11T06:46:51.952Z,4.72
2017-11-11T06:48:00.780Z,4.7
2017-11-11T06:49:09.761Z,4.72
2017-11-11T06:50:18.585Z,4.72
2017-11-11T06:51:27.767Z,4.8
2017-11-11T06:52:36.619Z,4.7
2017-11-11T06:53:45.765Z,4.73
2017-11-11T06:54:54.694Z,4.77
2017-11-11T06:56:03.521Z,4.69
2017-11-11T06:57:12.345Z,4.7
2017-11-11T06:58:21.176Z,4.67
2017-11-11T06:59:30.347Z,4.72
2017-11-11T07:00:39.225Z,4.75
2017-11-11T07:01:48.053Z,4.72
2017-11-11T07:02:56.878Z,4.69
2017-11-11T07:04:06.061Z,4.77
2017-11-11T07:05:14.890Z,4.78
2017-11-11T07:06:23.719Z,4.84
2017-11-11T07:07:32.545Z,4.78
2017-11-11T07:08:41.372Z,4.96
2017-11-11T07:09:50.543Z,4.97
2017-11-11T07:10:59.368Z,4.97
2017-11-11T07:12:08.497Z,4.97
2017-11-11T07:13:17.321Z,4.96
2017-11-11T07:14:26.494Z,4.97
2017-11-11T07:15:35.669Z,5.07
2017-11-11T07:16:44.497Z,4.96
2017-11-11T07:17:53.577Z,5.04
2017-11-11T07:19:02.398Z,4.99
2017-11-11T07:20:11.225Z,4.96
2017-11-11T07:21:20.053Z,5.06
2017-11-11T07:22:28.884Z,5.17
2017-11-11T07:23:37.806Z,5.06
2017-11-11T07:24:46.634Z,5.07
2017-11-11T07:25:55.461Z,5
2017-11-11T07:27:04.290Z,5.1
2017-11-11T07:28:13.125Z,5.04
2017-11-11T07:29:22.052Z,4.94
2017-11-11T07:30:30.887Z,5.02
2017-11-11T07:31:39.709Z,5.04
2017-11-11T07:32:48.538Z,5.04
2017-11-11T07:33:57.361Z,5.13
2017-11-11T07:35:06.293Z,5
2017-11-11T07:36:15.121Z,5.1
2017-11-11T07:37:23.948Z,5.03
2017-11-11T07:38:32.775Z,5.15
2017-11-11T07:39:41.600Z,5.1
2017-11-11T07:40:50.726Z,5.07
2017-11-11T07:41:59.559Z,5.25
2017-11-11T07:43:08.387Z,5.15
2017-11-11T07:44:17.560Z,5.06
2017-11-11T07:45:26.387Z,5.13
2017-11-11T07:46:35.363Z,5.28
2017-11-11T07:47:44.194Z,5.43
2017-11-11T07:48:53.026Z,5.3
2017-11-11T07:50:01.852Z,5.24
2017-11-11T07:51:10.677Z,5.22
2017-11-11T07:52:19.555Z,5.3
2017-11-11T07:53:28.381Z,5.24
2017-11-11T07:54:37.554Z,5.3
2017-11-11T07:55:46.384Z,5.2
2017-11-11T07:56:55.219Z,5.3
2017-11-11T07:58:04.241Z,5.22
2017-11-11T07:59:13.072Z,5.2
2017-11-11T08:00:21.900Z,5.24
2017-11-11T08:01:30.729Z,5.12
2017-11-11T08:02:39.556Z,5.15
2017-11-11T08:03:48.742Z,5.17
2017-11-11T08:04:57.919Z,5.12
2017-11-11T08:06:06.748Z,5.6
2017-11-11T08:07:15.930Z,5.39
2017-11-11T08:08:24.756Z,5.31
2017-11-11T08:09:34.029Z,5.25
2017-11-11T08:10:42.860Z,5.3
2017-11-11T08:11:51.683Z,5.38
2017-11-11T08:13:00.513Z,5.4
2017-11-11T08:14:09.697Z,5.42
2017-11-11T08:15:18.626Z,5.51
2017-11-11T08:16:27.452Z,5.49
2017-11-11T08:17:36.278Z,5.51
2017-11-11T08:18:45.120Z,5.64
2017-11-11T08:19:53.939Z,5.63
2017-11-11T08:21:02.869Z,5.64
2017-11-11T08:22:11.698Z,5.61
2017-11-11T08:23:20.526Z,5.63
2017-11-11T08:24:29.355Z,5.6
2017-11-11T08:25:38.184Z,5.64
2017-11-11T08:26:47.261Z,5.65
2017-11-11T08:27:56.088Z,5.6
2017-11-11T08:29:04.918Z,5.61
2017-11-11T08:30:13.743Z,5.48
2017-11-11T08:31:22.567Z,5.6
2017-11-11T08:32:31.547Z,5.61
2017-11-11T08:33:40.375Z,5.65
2017-11-11T08:34:49.204Z,5.65
2017-11-11T08:35:58.375Z,5.68
2017-11-11T08:37:07.547Z,5.68
2017-11-11T08:38:16.725Z,5.63
2017-11-11T08:39:25.553Z,5.6
2017-11-11T08:40:34.386Z,5.72
2017-11-11T08:41:43.206Z,5.76
2017-11-11T08:42:52.039Z,5.68
2017-11-11T08:44:01.013Z,5.72
2017-11-11T08:45:10.184Z,5.75
2017-11-11T08:46:19.440Z,5.68
2017-11-11T08:47:28.613Z,5.65
2017-11-11T08:48:37.440Z,5.65
2017-11-11T08:49:46.372Z,5.64
2017-11-11T08:50:55.547Z,5.63
2017-11-11T08:52:04.371Z,5.63
2017-11-11T08:53:13.199Z,5.61
2017-11-11T08:54:22.026Z,5.63
2017-11-11T08:55:31.005Z,5.67
2017-11-11T08:56:39.829Z,5.64
2017-11-11T08:57:49.002Z,5.63
2017-11-11T08:58:57.831Z,5.58
2017-11-11T09:00:07.014Z,5.63
2017-11-11T09:01:15.892Z,5.63
2017-11-11T09:02:24.719Z,5.64
2017-11-11T09:03:33.547Z,5.65
2017-11-11T09:04:42.375Z,5.61
2017-11-11T09:05:51.205Z,5.64
2017-11-11T09:07:00.034Z,5.63
2017-11-11T09:08:09.209Z,5.63
2017-11-11T09:09:18.038Z,5.61
2017-11-11T09:10:26.965Z,5.63
2017-11-11T09:11:35.795Z,5.63
2017-11-11T09:12:44.772Z,5.64
2017-11-11T09:13:54.293Z,5.63
2017-11-11T09:15:03.117Z,5.64
2017-11-11T09:16:11.945Z,5.68
2017-11-11T09:17:21.126Z,5.6
2017-11-11T09:18:30.049Z,6.12
2017-11-11T09:19:38.881Z,5.89
2017-11-11T09:20:47.709Z,5.85
2017-11-11T09:21:56.538Z,5.89
2017-11-11T09:23:05.364Z,6.03
2017-11-11T09:24:14.360Z,6.04
2017-11-11T09:25:23.541Z,6.12
2017-11-11T09:26:32.717Z,6.08
2017-11-11T09:27:41.543Z,6.06
2017-11-11T09:28:50.374Z,6.06
2017-11-11T09:29:59.596Z,6.52
2017-11-11T09:31:08.428Z,6.48
2017-11-11T09:32:17.255Z,6.25
2017-11-11T09:33:26.083Z,6.28
2017-11-11T09:34:34.913Z,6.18
2017-11-11T09:35:43.892Z,6.27
2017-11-11T09:36:52.719Z,6.54
2017-11-11T09:38:01.551Z,6.33
2017-11-11T09:39:10.747Z,6.43
2017-11-11T09:40:19.566Z,6.37
2017-11-11T09:41:28.543Z,6.48
2017-11-11T09:42:37.372Z,6.54
2017-11-11T09:43:46.210Z,6.52
2017-11-11T09:44:55.031Z,6.64
2017-11-11T09:46:03.861Z,6.52
2017-11-11T09:47:13.089Z,6.66
2017-11-11T09:48:21.919Z,6.52
2017-11-11T09:49:30.749Z,6.62
2017-11-11T09:50:39.578Z,6.46
2017-11-11T09:51:48.406Z,6.43
2017-11-11T09:52:57.585Z,6.34
2017-11-11T09:54:06.417Z,6.38
2017-11-11T09:55:15.248Z,6.31
2017-11-11T09:56:24.419Z,6.73
2017-11-11T09:57:33.248Z,6.66
2017-11-11T09:58:42.326Z,6.3
2017-11-11T09:59:51.153Z,6.25
2017-11-11T10:00:59.979Z,6.19
2017-11-11T10:02:08.809Z,6.09
2017-11-11T10:03:17.636Z,6.3
2017-11-11T10:04:26.813Z,6.25
2017-11-11T10:05:35.640Z,6.25
2017-11-11T10:06:44.468Z,6.09
2017-11-11T10:07:53.296Z,5.93
2017-11-11T10:09:02.467Z,5.93
2017-11-11T10:10:11.981Z,6.06
2017-11-11T10:11:20.809Z,5.83
2017-11-11T10:12:29.637Z,5.82
2017-11-11T10:13:38.470Z,5.85
2017-11-11T10:14:47.297Z,5.97
2017-11-11T10:15:56.123Z,5.91
2017-11-11T10:17:04.958Z,5.96
2017-11-11T10:18:13.779Z,6.09
2017-11-11T10:19:22.607Z,6.22
2017-11-11T10:20:31.435Z,6.12
2017-11-11T10:21:40.263Z,6.14
2017-11-11T10:22:49.092Z,6.15
2017-11-11T10:23:57.932Z,6.12
2017-11-11T10:25:06.746Z,6.09
2017-11-11T10:26:15.922Z,6.17
2017-11-11T10:27:24.750Z,6.21
2017-11-11T10:28:33.576Z,6.27
2017-11-11T10:29:42.404Z,6.28
2017-11-11T10:30:51.585Z,6.19
2017-11-11T10:32:00.406Z,6.21
2017-11-11T10:33:09.284Z,6.22
2017-11-11T10:34:18.113Z,6.4
2017-11-11T10:35:26.941Z,6.3
2017-11-11T10:36:35.771Z,6.34
2017-11-11T10:37:44.599Z,6.36
2017-11-11T10:38:53.429Z,6.46
2017-11-11T10:40:02.262Z,6.36
2017-11-11T10:41:11.094Z,6.46
2017-11-11T10:42:19.925Z,6.43
2017-11-11T10:43:28.749Z,6.59
2017-11-11T10:44:37.728Z,6.62
2017-11-11T10:45:46.561Z,6.54
2017-11-11T10:46:55.390Z,6.44
2017-11-11T10:48:04.217Z,6.41
2017-11-11T10:49:13.046Z,6.4
2017-11-11T10:50:22.025Z,6.41
2017-11-11T10:51:30.853Z,6.34
2017-11-11T10:52:39.682Z,6.38
2017-11-11T10:53:48.508Z,6.3
2017-11-11T10:54:57.339Z,6.33
2017-11-11T10:56:06.270Z,6.28
2017-11-11T10:57:15.101Z,6.49
2017-11-11T10:58:23.931Z,6.52
2017-11-11T10:59:32.758Z,6.51
2017-11-11T11:00:41.587Z,6.51
2017-11-11T11:01:50.467Z,6.61
2017-11-11T11:02:59.295Z,6.48
2017-11-11T11:04:08.124Z,6.55
2017-11-11T11:05:16.954Z,6.71
2017-11-11T11:06:25.784Z,6.49
2017-11-11T11:07:34.613Z,6.62
2017-11-11T11:08:43.442Z,6.59
2017-11-11T11:09:52.285Z,6.73
2017-11-11T11:11:01.106Z,6.58
2017-11-11T11:12:09.936Z,6.67
2017-11-11T11:13:19.260Z,6.79
2017-11-11T11:14:28.438Z,6.8
2017-11-11T11:15:37.267Z,6.8
2017-11-11T11:16:46.094Z,6.87
2017-11-11T11:17:55.269Z,6.76
2017-11-11T11:19:04.246Z,6.87
2017-11-11T11:20:13.076Z,6.85
2017-11-11T11:21:21.904Z,6.85
2017-11-11T11:22:30.733Z,6.98
2017-11-11T11:23:39.563Z,6.79
2017-11-11T11:24:48.445Z,6.84
2017-11-11T11:25:57.274Z,6.94
2017-11-11T11:27:06.102Z,6.84
2017-11-11T11:28:15.283Z,6.94
2017-11-11T11:29:24.113Z,6.81
2017-11-11T11:30:33.245Z,6.74
2017-11-11T11:31:42.075Z,6.87
2017-11-11T11:32:51.279Z,6.91
2017-11-11T11:34:00.114Z,6.89
2017-11-11T11:35:08.942Z,7.09
2017-11-11T11:36:18.128Z,7.17
2017-11-11T11:37:26.967Z,7.17
2017-11-11T11:38:35.803Z,7.46
2017-11-11T11:39:44.644Z,7.17
2017-11-11T11:40:53.508Z,7.02
2017-11-11T11:42:02.379Z,6.97
2017-11-11T11:43:11.220Z,7.2
2017-11-11T11:44:20.054Z,6.98
2017-11-11T11:45:28.897Z,6.84
2017-11-11T11:46:37.741Z,6.99
2017-11-11T11:47:46.735Z,6.95
2017-11-11T11:48:55.575Z,7.07
2017-11-11T11:50:04.408Z,7.15
2017-11-11T11:51:13.243Z,7.32
2017-11-11T11:52:22.066Z,7.17
2017-11-11T11:53:31.002Z,7.28
2017-11-11T11:54:40.182Z,7.16
2017-11-11T11:55:49.010Z,7.16
2017-11-11T11:56:57.838Z,7.1
2017-11-11T11:58:07.024Z,7.27
2017-11-11T11:59:16.254Z,7.16
2017-11-11T12:00:25.081Z,7.32
2017-11-11T12:01:34.257Z,6.98
2017-11-11T12:02:43.085Z,7.23
2017-11-11T12:03:51.914Z,7.15
2017-11-11T12:05:00.947Z,7.13
2017-11-11T12:06:09.778Z,7.09
2017-11-11T12:07:18.606Z,7.13
2017-11-11T12:08:27.433Z,7.16
2017-11-11T12:09:36.264Z,7.06
2017-11-11T12:10:45.089Z,7.32
2017-11-11T12:11:54.262Z,7.31
2017-11-11T12:13:03.091Z,7.21
2017-11-11T12:14:11.920Z,7.2
2017-11-11T12:15:20.753Z,7.49
2017-11-11T12:16:29.632Z,7.63
2017-11-11T12:17:38.463Z,7.28
2017-11-11T12:18:47.293Z,7.5
2017-11-11T12:19:56.123Z,7.37
2017-11-11T12:21:04.959Z,7.46
2017-11-11T12:22:13.882Z,7.31
2017-11-11T12:23:22.709Z,7.42
2017-11-11T12:24:31.538Z,7.68
2017-11-11T12:25:41.081Z,7.57
2017-11-11T12:26:49.904Z,7.43
2017-11-11T12:27:58.882Z,7.46
2017-11-11T12:29:07.711Z,7.32
2017-11-11T12:30:16.540Z,7.28
2017-11-11T12:31:25.371Z,7.61
2017-11-11T12:32:34.201Z,7.34
2017-11-11T12:33:43.128Z,7.31
2017-11-11T12:34:51.958Z,7.12
2017-11-11T12:36:00.798Z,7.57
2017-11-11T12:37:09.619Z,7.5
2017-11-11T12:38:18.447Z,7.3
2017-11-11T12:39:27.379Z,7.31
2017-11-11T12:40:36.210Z,7.42
2017-11-11T12:41:45.039Z,7.46
2017-11-11T12:42:54.223Z,7.23
2017-11-11T12:44:03.051Z,7.15
2017-11-11T12:45:12.137Z,7.17
2017-11-11T12:46:20.964Z,7.55
2017-11-11T12:47:29.795Z,7.57
2017-11-11T12:48:38.623Z,7.31
2017-11-11T12:49:47.454Z,7.2
2017-11-11T12:50:56.590Z,6.98
2017-11-11T12:52:05.413Z,7.02
2017-11-11T12:53:14.244Z,7.21
2017-11-11T12:54:23.074Z,7.21
2017-11-11T12:55:31.904Z,7.09
2017-11-11T12:56:41.035Z,7.05
2017-11-11T12:57:49.865Z,6.99
2017-11-11T12:58:59.044Z,7.2
2017-11-11T13:00:07.875Z,7.06
2017-11-11T13:01:16.707Z,7.02
2017-11-11T13:02:25.634Z,7.23
2017-11-11T13:03:34.463Z,7.02
2017-11-11T13:04:43.295Z,6.89
2017-11-11T13:05:52.126Z,6.91
2017-11-11T13:07:00.953Z,7.02
2017-11-11T13:08:09.939Z,7.05
2017-11-11T13:09:18.763Z,7.06
2017-11-11T13:10:27.591Z,7.05
2017-11-11T13:11:36.420Z,7.06
2017-11-11T13:12:45.249Z,7.06
2017-11-11T13:13:54.080Z,7.07
2017-11-11T13:15:02.911Z,7.05
2017-11-11T13:16:12.091Z,7.1
2017-11-11T13:17:20.918Z,7.07
2017-11-11T13:18:30.096Z,7.16
2017-11-11T13:19:39.488Z,7.09
2017-11-11T13:20:48.321Z,7.17
2017-11-11T13:21:57.155Z,7.16
2017-11-11T13:23:05.982Z,7.28
2017-11-11T13:24:14.812Z,7.32
2017-11-11T13:25:23.741Z,7.32
2017-11-11T13:26:32.919Z,7.35
2017-11-11T13:27:41.750Z,7.5
2017-11-11T13:28:50.582Z,7.5
2017-11-11T13:29:59.413Z,7.61
2017-11-11T13:31:08.494Z,7.5
2017-11-11T13:32:17.321Z,7.49
2017-11-11T13:33:26.153Z,7.53
2017-11-11T13:34:34.987Z,7.61
2017-11-11T13:35:43.819Z,7.64
2017-11-11T13:36:52.899Z,7.74
2017-11-11T13:38:01.731Z,7.95
2017-11-11T13:39:10.562Z,8.01
2017-11-11T13:40:19.392Z,7.9
2017-11-11T13:41:28.223Z,7.86
2017-11-11T13:42:37.154Z,7.85
2017-11-11T13:43:45.984Z,7.79
2017-11-11T13:44:54.812Z,7.82
2017-11-11T13:46:03.644Z,7.82
2017-11-11T13:47:12.476Z,8
2017-11-11T13:48:21.408Z,8.04
2017-11-11T13:49:30.239Z,7.93
2017-11-11T13:50:39.069Z,8.11
2017-11-11T13:51:47.900Z,8.33
2017-11-11T13:52:56.729Z,8.25
2017-11-11T13:54:05.961Z,8.15
2017-11-11T13:55:15.140Z,8.25
2017-11-11T13:56:24.316Z,8.28
2017-11-11T13:57:33.149Z,8.45
2017-11-11T13:58:41.982Z,8.59
2017-11-11T13:59:50.811Z,8.43
2017-11-11T14:00:59.652Z,8.45
2017-11-11T14:02:08.823Z,8.55
2017-11-11T14:03:17.653Z,8.43
2017-11-11T14:04:26.486Z,8.41
2017-11-11T14:05:35.374Z,8.29
2017-11-11T14:06:44.200Z,8.25
2017-11-11T14:07:53.030Z,8.2
2017-11-11T14:09:01.868Z,8.4
2017-11-11T14:10:10.699Z,8.37
2017-11-11T14:11:19.838Z,8.12
2017-11-11T14:12:28.663Z,8.02
2017-11-11T14:13:37.494Z,8.37
2017-11-11T14:14:46.328Z,8.29
2017-11-11T14:15:55.159Z,8.07
2017-11-11T14:17:04.141Z,7.87
2017-11-11T14:18:12.971Z,7.97
2017-11-11T14:19:21.802Z,8
2017-11-11T14:20:30.635Z,8.11
2017-11-11T14:21:39.468Z,7.98
2017-11-11T14:22:48.402Z,8
2017-11-11T14:23:57.234Z,8.01
2017-11-11T14:25:06.066Z,7.87
2017-11-11T14:26:14.897Z,7.89
2017-11-11T14:27:23.729Z,7.95
2017-11-11T14:28:32.560Z,7.89
2017-11-11T14:29:41.411Z,7.85
2017-11-11T14:30:50.615Z,7.89
2017-11-11T14:31:59.445Z,7.87
2017-11-11T14:33:08.278Z,7.74
2017-11-11T14:34:17.456Z,7.82
2017-11-11T14:35:26.286Z,7.8
2017-11-11T14:36:35.119Z,7.9
2017-11-11T14:37:44.295Z,7.97
2017-11-11T14:38:53.124Z,8.01
2017-11-11T14:40:02.155Z,8.02
2017-11-11T14:41:10.989Z,8.01
2017-11-11T14:42:19.819Z,7.98
2017-11-11T14:43:28.649Z,8.07
2017-11-11T14:44:37.485Z,7.95
2017-11-11T14:45:46.313Z,7.83
2017-11-11T14:46:55.154Z,7.79
2017-11-11T14:48:04.341Z,7.82
2017-11-11T14:49:13.173Z,7.64
2017-11-11T14:50:22.005Z,7.69
2017-11-11T14:51:30.890Z,7.58
2017-11-11T14:52:39.720Z,7.68
2017-11-11T14:53:48.555Z,7.63
2017-11-11T14:54:57.386Z,7.57
2017-11-11T14:56:06.228Z,7.49
2017-11-11T14:57:15.159Z,7.55
2017-11-11T14:58:23.992Z,7.71
2017-11-11T14:59:32.824Z,7.49
2017-11-11T15:00:41.655Z,7.48
2017-11-11T15:01:50.488Z,7.45
2017-11-11T15:02:59.416Z,7.42
2017-11-11T15:04:08.247Z,7.27
2017-11-11T15:05:17.078Z,7.34
2017-11-11T15:06:25.908Z,7.5
2017-11-11T15:07:34.743Z,7.35
2017-11-11T15:08:43.776Z,7.32
2017-11-11T15:09:52.609Z,7.32
2017-11-11T15:11:01.444Z,7.35
2017-11-11T15:12:10.267Z,7.24
2017-11-11T15:13:19.097Z,7.21
2017-11-11T15:14:28.228Z,7.25
2017-11-11T15:15:37.058Z,7.3
2017-11-11T15:16:45.887Z,7.24
2017-11-11T15:17:54.719Z,7.15
2017-11-11T15:19:03.551Z,7.2
2017-11-11T15:20:12.482Z,7.16
2017-11-11T15:21:21.308Z,7.13